Time;durP1;ratioP1;P1;durP2;ratioP2;P2;SDS_P1;SDS_P2;PMS_P1;PMS_P2;Temp;Humidity;BMP_temperature;BMP_pressure;BME280_temperature;BME280_humidity;BME280_pressure;Samples;Min_cycle;Max_cycle;Signal;HPM_P1;HPM_P2
2021/08/25 00:00:34;;;;;;;10.52;8.55;;;24.50;97.90;;;;;;4865842;29;20084;-85
2021/08/25 00:03:00;;;;;;;10.57;8.20;;;24.50;97.90;;;;;;4855034;29;20033;-87
2021/08/25 00:05:26;;;;;;;10.98;8.88;;;24.50;97.90;;;;;;4868728;29;20078;-85
2021/08/25 00:07:51;;;;;;;12.32;9.10;;;24.50;97.90;;;;;;4850508;29;20480;-85
2021/08/25 00:10:17;;;;;;;12.20;9.30;;;24.50;97.90;;;;;;4863494;29;20054;-86
2021/08/25 00:12:42;;;;;;;11.13;9.40;;;24.50;97.90;;;;;;4860208;29;20056;-88
2021/08/25 00:15:09;;;;;;;11.95;9.30;;;24.50;98.00;;;;;;4869451;29;20083;-85
2021/08/25 00:17:35;;;;;;;10.90;8.93;;;24.50;97.90;;;;;;4861341;29;20053;-85
2021/08/25 00:20:01;;;;;;;13.45;9.63;;;24.50;97.90;;;;;;4868211;29;20034;-86
2021/08/25 00:22:27;;;;;;;10.77;9.18;;;24.50;98.00;;;;;;4847472;29;20061;-86
2021/08/25 00:24:53;;;;;;;12.35;9.75;;;24.60;98.00;;;;;;4868683;29;20080;-86
2021/08/25 00:27:18;;;;;;;12.45;10.25;;;24.50;97.90;;;;;;4839080;29;20479;-86
2021/08/25 00:29:44;;;;;;;13.05;10.48;;;24.50;97.90;;;;;;4846079;29;20475;-86
2021/08/25 00:32:10;;;;;;;14.43;10.57;;;24.50;98.00;;;;;;4842501;29;20037;-85
2021/08/25 00:34:35;;;;;;;15.73;11.88;;;24.50;98.00;;;;;;4846236;29;20117;-85
2021/08/25 00:37:01;;;;;;;14.65;11.20;;;24.50;98.00;;;;;;4866319;29;20065;-87
2021/08/25 00:39:27;;;;;;;13.70;10.73;;;24.50;98.00;;;;;;4873108;29;20054;-85
2021/08/25 00:41:53;;;;;;;14.20;11.00;;;24.50;98.00;;;;;;4876876;29;20040;-86
2021/08/25 00:44:18;;;;;;;14.20;11.40;;;24.60;98.00;;;;;;4853511;29;20172;-85
2021/08/25 00:46:45;;;;;;;14.73;11.45;;;24.50;98.00;;;;;;4845021;29;20041;-85
2021/08/25 00:49:21;;;;;;;14.90;12.25;;;24.50;98.00;;;;;;4848690;29;20060;-86
2021/08/25 00:51:48;;;;;;;16.10;12.60;;;24.50;98.00;;;;;;4866093;29;20069;-86
2021/08/25 00:54:15;;;;;;;14.13;11.85;;;24.50;98.00;;;;;;4845989;29;20105;-86
2021/08/25 00:56:43;;;;;;;14.82;12.63;;;24.50;98.00;;;;;;4867232;29;20388;-86
2021/08/25 00:59:10;;;;;;;15.15;11.82;;;24.50;98.00;;;;;;4856519;29;20473;-89
2021/08/25 01:01:44;;;;;;;14.45;12.45;;;24.50;98.00;;;;;;4839109;29;20085;-85
2021/08/25 01:04:27;;;;;;;15.13;12.63;;;24.50;98.10;;;;;;4869946;29;20107;-87
2021/08/25 01:06:54;;;;;;;16.10;12.30;;;24.50;98.10;;;;;;4865389;29;20033;-86
2021/08/25 01:09:19;;;;;;;16.52;12.88;;;24.50;98.10;;;;;;4871162;29;20030;-85
2021/08/25 01:11:48;;;;;;;16.77;13.05;;;24.50;98.10;;;;;;4849594;29;20068;-88
2021/08/25 01:14:15;;;;;;;17.20;13.48;;;24.50;98.10;;;;;;4869934;29;20082;-85
2021/08/25 01:16:42;;;;;;;17.45;13.63;;;24.50;98.10;;;;;;4867416;29;20033;-85
2021/08/25 01:19:16;;;;;;;17.38;13.65;;;24.50;98.10;;;;;;4834850;29;20061;-85
2021/08/25 01:21:45;;;;;;;17.27;13.25;;;24.50;98.10;;;;;;4866460;29;20044;-85
2021/08/25 01:24:12;;;;;;;17.13;13.82;;;24.50;98.10;;;;;;4855535;29;20083;-84
2021/08/25 01:26:40;;;;;;;16.25;13.05;;;24.50;98.10;;;;;;4841438;29;20480;-85
2021/08/25 01:29:14;;;;;;;15.45;12.90;;;24.50;98.10;;;;;;4871189;29;20037;-85
2021/08/25 01:31:40;;;;;;;;;;;24.50;98.10;;;;;;4838006;29;20068;-86
2021/08/25 01:34:07;;;;;;;15.10;12.60;;;24.50;98.10;;;;;;4849161;29;20342;-86
2021/08/25 01:36:33;;;;;;;18.00;13.80;;;24.50;98.00;;;;;;4860668;29;20032;-85
2021/08/25 01:38:59;;;;;;;15.43;12.30;;;24.50;98.10;;;;;;4857192;29;20037;-86
2021/08/25 01:41:29;;;;;;;16.67;12.48;;;24.50;98.10;;;;;;4868746;29;20056;-84
2021/08/25 01:44:00;;;;;;;16.23;12.57;;;24.50;98.10;;;;;;4866354;29;20029;-85
2021/08/25 01:46:29;;;;;;;16.00;12.20;;;24.50;98.10;;;;;;4848692;29;20038;-85
2021/08/25 01:48:56;;;;;;;18.60;12.32;;;24.50;98.10;;;;;;4860038;29;20097;-85
2021/08/25 01:51:27;;;;;;;16.35;12.65;;;24.50;98.10;;;;;;4869090;29;20033;-85
2021/08/25 01:53:54;;;;;;;14.73;11.10;;;24.50;98.10;;;;;;4858918;29;20036;-85
2021/08/25 01:56:20;;;;;;;15.52;12.65;;;24.50;98.10;;;;;;4850734;29;20053;-86
2021/08/25 01:58:46;;;;;;;15.40;11.38;;;24.50;98.10;;;;;;4854889;29;20089;-86
2021/08/25 02:01:11;;;;;;;13.48;11.38;;;24.50;98.10;;;;;;4874242;29;20029;-85
2021/08/25 02:03:37;;;;;;;14.88;11.60;;;24.50;98.10;;;;;;4858901;29;20104;-86
2021/08/25 02:06:03;;;;;;;16.05;11.38;;;24.50;98.10;;;;;;4848176;29;20041;-86
2021/08/25 02:08:29;;;;;;;14.07;11.65;;;24.50;98.10;;;;;;4867035;29;20030;-87
2021/08/25 02:10:54;;;;;;;14.30;11.73;;;24.50;98.10;;;;;;4850790;29;20036;-86
2021/08/25 02:13:20;;;;;;;14.65;11.23;;;24.50;98.10;;;;;;4838745;29;20490;-86
2021/08/25 02:15:46;;;;;;;13.93;11.55;;;24.50;98.10;;;;;;4842550;29;20045;-84
2021/08/25 02:18:11;;;;;;;16.27;12.13;;;24.50;98.10;;;;;;4851292;29;20086;-85
2021/08/25 02:20:37;;;;;;;14.00;11.07;;;24.50;98.10;;;;;;4854835;29;20053;-85
2021/08/25 02:23:03;;;;;;;14.00;11.82;;;24.50;98.10;;;;;;4868694;29;20489;-84
2021/08/25 02:25:29;;;;;;;13.80;11.50;;;24.50;98.10;;;;;;4869497;29;20100;-85
2021/08/25 02:27:54;;;;;;;15.52;11.93;;;24.50;98.10;;;;;;4865244;29;20112;-85
2021/08/25 02:30:20;;;;;;;15.10;11.30;;;24.50;98.10;;;;;;4854982;29;20449;-90
2021/08/25 02:32:46;;;;;;;13.65;11.43;;;24.50;98.10;;;;;;4863214;29;20033;-85
2021/08/25 02:35:12;;;;;;;14.77;11.70;;;24.50;98.10;;;;;;4857155;29;20082;-86
2021/08/25 02:37:38;;;;;;;14.13;10.82;;;24.50;98.10;;;;;;4842315;29;20044;-84
2021/08/25 02:40:07;;;;;;;18.70;11.52;;;24.50;98.10;;;;;;4856476;29;20065;-85
2021/08/25 02:42:32;;;;;;;16.08;11.20;;;24.50;98.10;;;;;;4873081;29;20030;-84
2021/08/25 02:44:58;;;;;;;14.93;11.40;;;24.40;98.10;;;;;;4846714;29;20055;-85
2021/08/25 02:47:24;;;;;;;15.13;12.00;;;24.50;98.10;;;;;;4859754;29;20121;-86
2021/08/25 02:49:49;;;;;;;14.38;10.90;;;24.50;98.20;;;;;;4858980;29;20460;-85
2021/08/25 02:52:15;;;;;;;14.98;11.60;;;24.50;98.20;;;;;;4820586;29;20069;-85
2021/08/25 02:54:40;;;;;;;13.43;11.07;;;24.50;98.20;;;;;;4846048;29;20400;-85
2021/08/25 02:57:06;;;;;;;12.38;10.10;;;24.50;98.20;;;;;;4859765;29;20040;-85
2021/08/25 02:59:32;;;;;;;13.68;11.10;;;24.40;98.20;;;;;;4869499;29;20033;-84
2021/08/25 03:01:57;;;;;;;12.93;10.60;;;24.50;98.20;;;;;;4859747;29;20480;-85
2021/08/25 03:04:23;;;;;;;13.60;11.18;;;24.40;98.20;;;;;;4866758;29;20038;-85
2021/08/25 03:06:49;;;;;;;12.73;10.73;;;24.40;98.20;;;;;;4837987;29;20041;-87
2021/08/25 03:09:14;;;;;;;13.23;10.05;;;24.40;98.20;;;;;;4864658;29;20081;-85
2021/08/25 03:11:40;;;;;;;14.00;10.98;;;24.40;98.20;;;;;;4871936;29;20037;-86
2021/08/25 03:14:06;;;;;;;13.70;10.70;;;24.40;98.20;;;;;;4858178;29;20052;-86
2021/08/25 03:16:31;;;;;;;11.90;9.90;;;24.40;98.20;;;;;;4855605;29;20485;-85
2021/08/25 03:18:57;;;;;;;13.93;9.95;;;24.40;98.20;;;;;;4868532;29;20535;-86
2021/08/25 03:21:23;;;;;;;13.45;11.18;;;24.40;98.20;;;;;;4877943;29;20048;-85
2021/08/25 03:23:49;;;;;;;12.75;10.27;;;24.40;98.20;;;;;;4871633;29;20173;-85
2021/08/25 03:26:14;;;;;;;14.15;11.35;;;24.40;98.20;;;;;;4875619;29;20044;-85
2021/08/25 03:28:40;;;;;;;13.30;10.60;;;24.40;98.20;;;;;;4869261;29;20033;-85
2021/08/25 03:31:06;;;;;;;11.93;9.90;;;24.40;98.20;;;;;;4840970;29;20033;-86
2021/08/25 03:33:31;;;;;;;12.18;10.18;;;24.40;98.20;;;;;;4844949;29;20139;-85
2021/08/25 03:35:57;;;;;;;13.60;10.48;;;24.40;98.20;;;;;;4879302;29;20077;-84
2021/08/25 03:38:23;;;;;;;10.93;9.43;;;24.40;98.20;;;;;;4843723;29;20037;-84
2021/08/25 03:40:48;;;;;;;13.75;10.88;;;24.50;98.20;;;;;;4876356;29;20113;-84
2021/08/25 03:43:14;;;;;;;13.98;10.15;;;24.50;98.20;;;;;;4847137;29;20067;-85
2021/08/25 03:45:40;;;;;;;13.95;10.50;;;24.50;98.20;;;;;;4857400;29;20443;-85
2021/08/25 03:48:06;;;;;;;11.90;10.35;;;24.50;98.20;;;;;;4869951;29;20383;-85
2021/08/25 03:50:31;;;;;;;12.75;10.77;;;24.50;98.20;;;;;;4861400;29;20547;-86
2021/08/25 03:52:57;;;;;;;13.35;10.45;;;24.50;98.20;;;;;;4857157;29;20053;-85
2021/08/25 03:55:23;;;;;;;13.15;11.07;;;24.50;98.20;;;;;;4852993;29;20050;-87
2021/08/25 03:57:49;;;;;;;13.40;10.52;;;24.50;98.20;;;;;;4869290;29;20081;-86
2021/08/25 04:00:15;;;;;;;12.93;10.40;;;24.50;98.20;;;;;;4850242;29;20098;-86
2021/08/25 04:02:41;;;;;;;11.38;9.55;;;24.50;98.20;;;;;;4857888;29;20037;-85
2021/08/25 04:05:08;;;;;;;12.63;10.25;;;24.50;98.20;;;;;;4874516;29;20031;-85
2021/08/25 04:07:34;;;;;;;13.50;11.10;;;24.50;98.20;;;;;;4861493;29;20037;-86
2021/08/25 04:09:59;;;;;;;13.65;11.40;;;24.50;98.20;;;;;;4854411;29;20503;-85
2021/08/25 04:12:25;;;;;;;13.10;10.80;;;24.50;98.20;;;;;;4859238;29;20037;-85
2021/08/25 04:14:51;;;;;;;13.57;11.02;;;24.50;98.20;;;;;;4868193;29;20437;-86
2021/08/25 04:17:16;;;;;;;12.18;9.65;;;24.50;98.20;;;;;;4848859;29;20029;-86
2021/08/25 04:19:42;;;;;;;12.75;10.00;;;24.50;98.20;;;;;;4862710;29;20045;-86
2021/08/25 04:22:08;;;;;;;12.23;10.43;;;24.50;98.20;;;;;;4879540;29;20073;-86
2021/08/25 04:24:33;;;;;;;12.13;10.25;;;24.50;98.20;;;;;;4879916;29;20048;-86
2021/08/25 04:26:59;;;;;;;14.73;10.80;;;24.50;98.20;;;;;;4863740;29;20044;-86
2021/08/25 04:29:25;;;;;;;12.63;10.57;;;24.50;98.20;;;;;;4847944;29;20543;-87
2021/08/25 04:31:50;;;;;;;11.40;10.20;;;24.50;98.20;;;;;;4862929;29;20033;-85
2021/08/25 04:34:16;;;;;;;13.23;10.70;;;24.50;98.20;;;;;;4863116;29;20124;-85
2021/08/25 04:36:42;;;;;;;12.48;10.07;;;24.50;98.20;;;;;;4862822;29;20161;-86
2021/08/25 04:39:07;;;;;;;11.73;10.07;;;24.50;98.20;;;;;;4879411;29;20041;-84
2021/08/25 04:41:33;;;;;;;13.15;10.18;;;24.50;98.20;;;;;;4856687;29;20034;-85
2021/08/25 04:43:58;;;;;;;11.93;9.85;;;24.50;98.20;;;;;;4844714;29;20048;-85
2021/08/25 04:46:24;;;;;;;12.68;10.50;;;24.50;98.20;;;;;;4844722;29;20392;-85
2021/08/25 04:48:50;;;;;;;13.43;10.68;;;24.50;98.20;;;;;;4845227;29;20036;-85
2021/08/25 04:51:15;;;;;;;10.82;9.70;;;24.50;98.20;;;;;;4830060;29;20508;-85
2021/08/25 04:53:41;;;;;;;12.77;10.13;;;24.50;98.20;;;;;;4860830;29;20036;-85
2021/08/25 04:56:07;;;;;;;13.32;10.57;;;24.50;98.20;;;;;;4863927;29;20097;-85
2021/08/25 04:58:33;;;;;;;13.57;10.75;;;24.50;98.20;;;;;;4843804;29;20064;-84
2021/08/25 05:00:59;;;;;;;10.95;9.57;;;24.50;98.20;;;;;;4879787;29;20041;-84
2021/08/25 05:03:25;;;;;;;10.63;9.32;;;24.50;98.20;;;;;;4863027;29;20052;-84
2021/08/25 05:05:51;;;;;;;12.05;10.55;;;24.50;98.20;;;;;;4842015;29;20400;-86
2021/08/25 05:08:16;;;;;;;12.52;9.98;;;24.50;98.20;;;;;;4829800;29;20400;-86
2021/08/25 05:10:48;;;;;;;11.73;9.43;;;24.50;98.20;;;;;;4861023;29;20033;-86
2021/08/25 05:13:14;;;;;;;11.30;9.50;;;24.50;98.20;;;;;;4844471;29;20120;-84
2021/08/25 05:15:46;;;;;;;12.25;9.75;;;24.50;98.20;;;;;;4870106;29;20120;-89
2021/08/25 05:18:11;;;;;;;14.60;11.20;;;24.50;98.20;;;;;;4859601;29;20081;-84
2021/08/25 05:20:37;;;;;;;12.57;10.07;;;24.50;98.20;;;;;;4858871;29;20041;-85
2021/08/25 05:23:03;;;;;;;10.55;9.43;;;24.50;98.20;;;;;;4869523;29;20033;-88
2021/08/25 05:25:29;;;;;;;12.15;10.00;;;24.50;98.20;;;;;;4845793;29;20543;-86
2021/08/25 05:27:55;;;;;;;11.82;9.55;;;24.50;98.30;;;;;;4849489;29;20108;-86
2021/08/25 05:30:21;;;;;;;10.23;8.93;;;24.50;98.30;;;;;;4853551;29;20034;-86
2021/08/25 05:32:51;;;;;;;12.23;9.15;;;24.50;98.30;;;;;;4873990;29;20032;-86
2021/08/25 05:35:19;;;;;;;12.13;10.10;;;24.50;98.30;;;;;;4863623;29;20078;-87
2021/08/25 05:37:48;;;;;;;10.60;8.82;;;24.50;98.30;;;;;;4855421;29;20108;-87
2021/08/25 05:40:14;;;;;;;12.50;9.65;;;24.50;98.30;;;;;;4853624;29;20053;-85
2021/08/25 05:42:45;;;;;;;10.75;8.98;;;24.50;98.30;;;;;;4871957;29;20464;-85
2021/08/25 05:45:14;;;;;;;11.68;9.43;;;24.50;98.40;;;;;;4848160;29;20037;-86
2021/08/25 05:47:40;;;;;;;10.55;9.38;;;24.50;98.40;;;;;;4846823;29;20124;-87
2021/08/25 05:50:08;;;;;;;11.98;9.52;;;24.50;98.40;;;;;;4860694;29;20170;-87
2021/08/25 05:52:33;;;;;;;10.85;8.90;;;24.50;98.40;;;;;;4836821;29;20065;-86
2021/08/25 05:54:59;;;;;;;12.00;9.48;;;24.50;98.40;;;;;;4860622;29;20490;-85
2021/08/25 05:57:24;;;;;;;9.77;8.55;;;24.60;98.40;;;;;;4836491;29;20396;-86
2021/08/25 05:59:50;;;;;;;11.07;8.73;;;24.50;98.40;;;;;;4864330;29;20033;-86
2021/08/25 06:02:16;;;;;;;8.50;7.60;;;24.60;98.50;;;;;;4851816;29;20045;-86
2021/08/25 06:04:42;;;;;;;9.80;8.48;;;24.50;98.50;;;;;;4839360;29;20443;-85
2021/08/25 06:07:09;;;;;;;12.40;8.52;;;24.50;98.50;;;;;;4829982;29;20037;-85
2021/08/25 06:09:35;;;;;;;11.35;9.13;;;24.60;98.60;;;;;;4843545;29;20510;-87
2021/08/25 06:12:00;;;;;;;10.35;8.30;;;24.50;98.60;;;;;;4864337;29;20059;-85
2021/08/25 06:14:26;;;;;;;11.45;8.38;;;24.50;98.60;;;;;;4847003;29;20507;-86
2021/08/25 06:16:52;;;;;;;9.55;7.93;;;24.60;98.60;;;;;;4835959;29;20040;-86
2021/08/25 06:19:17;;;;;;;8.95;7.95;;;24.60;98.70;;;;;;4859935;29;20139;-87
2021/08/25 06:21:44;;;;;;;8.90;7.72;;;24.60;98.70;;;;;;4844342;29;20059;-86
2021/08/25 06:24:10;;;;;;;9.23;7.43;;;24.60;98.70;;;;;;4842902;29;20112;-86
2021/08/25 06:26:36;;;;;;;9.45;7.70;;;24.60;98.70;;;;;;4844158;29;20402;-86
2021/08/25 06:29:02;;;;;;;8.57;7.20;;;24.60;98.70;;;;;;4846935;29;20041;-86
2021/08/25 06:31:27;;;;;;;9.40;7.05;;;24.60;98.70;;;;;;4847862;29;20084;-86
2021/08/25 06:33:53;;;;;;;8.55;7.13;;;24.60;98.80;;;;;;4845452;29;20456;-87
2021/08/25 06:36:19;;;;;;;10.13;7.63;;;24.60;98.80;;;;;;4829295;29;20068;-86
2021/08/25 06:38:45;;;;;;;10.20;8.27;;;24.60;98.80;;;;;;4853132;29;20480;-86
2021/08/25 06:41:10;;;;;;;7.85;6.63;;;24.60;98.80;;;;;;4860648;29;20030;-85
2021/08/25 06:43:36;;;;;;;8.73;7.50;;;24.60;98.90;;;;;;4873451;29;20374;-86
2021/08/25 06:46:02;;;;;;;8.88;7.15;;;24.70;98.90;;;;;;4859198;29;20433;-85
2021/08/25 06:48:27;;;;;;;9.50;7.63;;;24.70;98.90;;;;;;4865001;29;20116;-84
2021/08/25 06:50:53;;;;;;;9.38;7.63;;;24.70;99.00;;;;;;4851139;29;20070;-86
2021/08/25 06:53:21;;;;;;;10.45;7.35;;;24.70;99.00;;;;;;4868206;29;20033;-86
2021/08/25 06:55:47;;;;;;;10.00;7.43;;;24.70;99.00;;;;;;4875412;29;20568;-87
2021/08/25 06:58:12;;;;;;;11.05;7.32;;;24.70;99.00;;;;;;4857577;29;20041;-85
2021/08/25 07:00:38;;;;;;;7.93;6.45;;;24.70;99.00;;;;;;4877260;29;20133;-85
2021/08/25 07:03:04;;;;;;;9.27;7.15;;;24.70;99.00;;;;;;4848950;29;20474;-85
2021/08/25 07:05:29;;;;;;;7.57;5.88;;;24.70;99.00;;;;;;4872159;29;20115;-84
2021/08/25 07:07:55;;;;;;;8.10;5.68;;;24.70;99.00;;;;;;4869980;29;20086;-86
2021/08/25 07:10:22;;;;;;;7.00;5.47;;;24.70;98.90;;;;;;4838065;29;20029;-86
2021/08/25 07:12:47;;;;;;;7.85;5.60;;;24.70;98.90;;;;;;4849720;29;20087;-86
2021/08/25 07:15:17;;;;;;;6.53;4.97;;;24.70;99.00;;;;;;4847199;29;20516;-86
2021/08/25 07:17:46;;;;;;;7.93;4.90;;;24.70;98.90;;;;;;4848690;29;20461;-87
2021/08/25 07:20:14;;;;;;;5.22;4.25;;;24.70;98.90;;;;;;4875480;29;20559;-86
2021/08/25 07:22:40;;;;;;;7.80;4.93;;;24.70;98.90;;;;;;4862627;29;20566;-86
2021/08/25 07:25:07;;;;;;;5.28;4.18;;;24.70;98.90;;;;;;4846513;29;20575;-87
2021/08/25 07:27:33;;;;;;;5.25;3.65;;;24.70;98.90;;;;;;4862831;29;20045;-86
2021/08/25 07:29:59;;;;;;;5.57;3.85;;;24.70;98.90;;;;;;4855231;29;20049;-85
2021/08/25 07:32:27;;;;;;;5.28;4.03;;;24.70;98.90;;;;;;4864540;29;20033;-85
2021/08/25 07:34:53;;;;;;;4.82;3.85;;;24.80;98.90;;;;;;4855971;29;20080;-86
2021/08/25 07:37:19;;;;;;;8.23;4.28;;;24.70;98.90;;;;;;4847314;29;20445;-85
2021/08/25 07:39:45;;;;;;;5.20;3.75;;;24.80;99.00;;;;;;4860349;29;20380;-85
2021/08/25 07:42:10;;;;;;;5.18;3.30;;;24.80;98.90;;;;;;4868901;29;20093;-85
2021/08/25 07:44:36;;;;;;;5.35;3.83;;;24.80;98.90;;;;;;4860099;29;20045;-85
2021/08/25 07:47:02;;;;;;;5.50;3.53;;;24.80;98.90;;;;;;4843458;29;20040;-85
2021/08/25 07:49:29;;;;;;;5.63;3.40;;;24.80;98.90;;;;;;4856835;29;20500;-86
2021/08/25 07:51:54;;;;;;;5.95;4.13;;;24.80;98.90;;;;;;4832678;29;20038;-85
2021/08/25 07:54:20;;;;;;;3.60;3.28;;;24.80;98.90;;;;;;4877182;29;20533;-85
2021/08/25 07:56:46;;;;;;;4.40;3.53;;;24.80;98.90;;;;;;4847711;29;20045;-85
2021/08/25 07:59:12;;;;;;;4.80;3.35;;;24.80;98.90;;;;;;4875452;29;20093;-85
2021/08/25 08:01:37;;;;;;;5.47;3.38;;;24.80;98.90;;;;;;4861919;29;20041;-84
2021/08/25 08:04:03;;;;;;;5.97;3.55;;;24.80;98.90;;;;;;4860717;29;20039;-85
2021/08/25 08:06:29;;;;;;;6.03;3.78;;;24.80;98.90;;;;;;4850899;29;20033;-84
2021/08/25 08:08:54;;;;;;;7.90;3.70;;;24.80;98.90;;;;;;4831706;29;20049;-88
2021/08/25 08:11:20;;;;;;;5.35;3.70;;;24.80;98.90;;;;;;4866368;29;20039;-85
2021/08/25 08:13:46;;;;;;;5.85;3.78;;;24.80;98.90;;;;;;4854643;29;20119;-85
2021/08/25 08:16:17;;;;;;;6.25;3.80;;;24.80;98.90;;;;;;4866048;29;20044;-86
2021/08/25 08:18:55;;;;;;;6.40;3.20;;;24.80;98.80;;;;;;4841562;29;20407;-84
2021/08/25 08:21:22;;;;;;;4.05;2.90;;;24.80;98.80;;;;;;4846962;29;20148;-84
2021/08/25 08:23:48;;;;;;;5.05;2.90;;;24.80;98.80;;;;;;4858002;29;20048;-85
2021/08/25 08:26:13;;;;;;;4.05;3.08;;;24.80;98.70;;;;;;4862596;29;20036;-85
2021/08/25 08:28:39;;;;;;;5.10;3.00;;;24.80;98.70;;;;;;4861891;29;20073;-84
2021/08/25 08:31:05;;;;;;;4.50;3.10;;;24.80;98.60;;;;;;4858705;29;20033;-87
2021/08/25 08:33:30;;;;;;;4.38;3.13;;;24.80;98.60;;;;;;4874454;29;20048;-87
2021/08/25 08:35:56;;;;;;;3.50;2.80;;;24.80;98.50;;;;;;4860284;29;20037;-84
2021/08/25 08:38:22;;;;;;;4.18;3.00;;;24.80;98.50;;;;;;4844898;29;20088;-84
2021/08/25 08:40:47;;;;;;;4.10;2.85;;;24.80;98.70;;;;;;4855532;29;20045;-84
2021/08/25 08:43:13;;;;;;;4.13;2.83;;;24.80;98.40;;;;;;4862235;29;20108;-84
2021/08/25 08:45:44;;;;;;;5.32;3.15;;;24.80;98.40;;;;;;4844628;29;20038;-85
2021/08/25 08:48:14;;;;;;;3.55;2.90;;;24.80;98.40;;;;;;4863945;29;20425;-84
2021/08/25 08:50:42;;;;;;;4.90;2.72;;;24.80;98.40;;;;;;4844528;29;20502;-86
2021/08/25 08:53:09;;;;;;;3.92;2.60;;;24.90;98.30;;;;;;4865127;29;20053;-86
2021/08/25 08:55:35;;;;;;;3.10;2.55;;;24.90;98.30;;;;;;4850118;29;20037;-84
2021/08/25 08:58:01;;;;;;;5.03;2.70;;;24.90;98.30;;;;;;4877762;29;20029;-84
2021/08/25 09:00:27;;;;;;;3.97;2.30;;;24.90;98.20;;;;;;4829318;29;20045;-85
2021/08/25 09:02:53;;;;;;;3.35;2.35;;;24.90;98.10;;;;;;4853015;29;20511;-84
2021/08/25 09:05:23;;;;;;;3.47;2.40;;;24.90;98.10;;;;;;4877382;29;20108;-84
2021/08/25 09:07:53;;;;;;;3.33;2.10;;;24.90;98.20;;;;;;4872584;29;20388;-87
2021/08/25 09:10:28;;;;;;;5.43;2.75;;;24.90;98.20;;;;;;4853627;29;20494;-85
2021/08/25 09:12:58;;;;;;;4.57;2.90;;;24.90;98.20;;;;;;4849980;29;20156;-87
2021/08/25 09:15:26;;;;;;;4.53;3.13;;;24.90;98.10;;;;;;4853520;29;20032;-86
2021/08/25 09:18:14;;;;;;;4.80;3.22;;;24.90;98.10;;;;;;4868973;29;20058;-86
2021/08/25 09:20:44;;;;;;;3.50;2.55;;;25.00;98.10;;;;;;4873352;29;20152;-86
2021/08/25 09:23:14;;;;;;;4.45;2.67;;;25.00;98.00;;;;;;4854582;29;20498;-88
2021/08/25 09:25:42;;;;;;;5.30;2.90;;;25.00;97.90;;;;;;4844126;29;20462;-86
2021/08/25 09:28:09;;;;;;;5.68;2.90;;;25.00;97.90;;;;;;4844118;29;20033;-87
2021/08/25 09:31:04;;;;;;;6.10;2.47;;;25.00;97.80;;;;;;4831502;29;20037;-87
2021/08/25 09:33:32;;;;;;;5.28;2.78;;;25.00;97.80;;;;;;4854042;29;20119;-88
2021/08/25 09:36:07;;;;;;;4.72;3.00;;;25.00;97.70;;;;;;4867282;29;20041;-87
2021/08/25 09:38:35;;;;;;;4.10;2.65;;;25.00;97.80;;;;;;4865730;29;20029;-87
2021/08/25 09:41:06;;;;;;;4.72;2.85;;;25.00;97.70;;;;;;4848671;29;20040;-87
2021/08/25 09:43:37;;;;;;;3.78;3.17;;;25.00;97.80;;;;;;4875832;29;20100;-87
2021/08/25 09:46:26;;;;;;;3.17;2.75;;;25.00;97.60;;;;;;4869193;29;20104;-87
2021/08/25 09:48:57;;;;;;;4.35;2.85;;;25.00;97.50;;;;;;4837728;29;20411;-87
2021/08/25 09:51:25;;;;;;;5.20;4.05;;;25.00;97.40;;;;;;4860562;29;20051;-87
2021/08/25 09:54:03;;;;;;;4.60;3.42;;;25.00;97.40;;;;;;4868302;29;20029;-88
2021/08/25 09:56:32;;;;;;;4.13;3.05;;;25.00;97.40;;;;;;4860315;29;20042;-88
2021/08/25 09:58:58;;;;;;;3.58;2.72;;;25.00;97.30;;;;;;4861416;29;20034;-87
2021/08/25 10:01:25;;;;;;;4.80;3.45;;;25.00;97.30;;;;;;4864663;29;20086;-87
2021/08/25 10:03:53;;;;;;;3.47;2.75;;;25.00;97.20;;;;;;4872568;29;20037;-88
2021/08/25 10:06:21;;;;;;;5.43;3.10;;;25.00;97.20;;;;;;4861316;29;20045;-91
2021/08/25 10:08:48;;;;;;;4.72;3.15;;;25.00;97.20;;;;;;4867980;29;20041;-84
2021/08/25 10:11:15;;;;;;;4.38;2.75;;;25.00;97.20;;;;;;4847953;29;20037;-85
2021/08/25 10:13:41;;;;;;;5.40;3.00;;;25.00;97.30;;;;;;4850536;29;20048;-83
2021/08/25 10:16:34;;;;;;;5.45;2.95;;;25.00;97.30;;;;;;4855097;29;20218;-86
2021/08/25 10:19:28;;;;;;;4.43;2.80;;;25.00;97.30;;;;;;4850592;29;20056;-84
2021/08/25 10:22:00;;;;;;;6.82;2.88;;;25.00;97.40;;;;;;4850732;29;20049;-84
2021/08/25 10:24:27;;;;;;;5.00;3.03;;;25.00;97.40;;;;;;4844607;29;20029;-84
2021/08/25 10:26:58;;;;;;;4.45;3.10;;;25.00;97.40;;;;;;4862087;29;20041;-84
2021/08/25 10:29:28;;;;;;;6.88;3.08;;;25.00;97.30;;;;;;4878917;29;20524;-87
2021/08/25 10:31:55;;;;;;;6.60;3.22;;;25.00;97.20;;;;;;4870652;29;20029;-84
2021/08/25 10:34:21;;;;;;;5.60;3.08;;;25.00;97.10;;;;;;4847064;29;20494;-86
2021/08/25 10:36:48;;;;;;;3.95;2.72;;;25.00;97.10;;;;;;4857382;29;20452;-84
2021/08/25 10:39:29;;;;;;;6.50;2.95;;;25.00;97.00;;;;;;4866283;29;20119;-84
2021/08/25 10:41:55;;;;;;;6.97;3.13;;;25.00;96.90;;;;;;4864446;29;20128;-84
2021/08/25 10:44:46;;;;;;;4.65;2.80;;;25.00;96.80;;;;;;4882421;29;20491;-87
2021/08/25 10:47:13;;;;;;;4.57;2.58;;;25.00;96.70;;;;;;4864983;29;20040;-84
2021/08/25 10:49:45;;;;;;;4.55;2.75;;;25.00;96.60;;;;;;4881122;29;20499;-84
2021/08/25 10:52:13;;;;;;;4.90;2.58;;;25.00;96.50;;;;;;4882889;29;20029;-83
2021/08/25 10:54:40;;;;;;;4.45;2.80;;;25.00;96.40;;;;;;4865094;29;20073;-84
2021/08/25 10:57:08;;;;;;;4.20;2.60;;;25.00;96.40;;;;;;4882878;29;20116;-84
2021/08/25 10:59:33;;;;;;;5.10;2.55;;;25.00;96.40;;;;;;4882868;29;20041;-84
2021/08/25 11:02:00;;;;;;;4.20;2.30;;;25.00;96.40;;;;;;4852228;29;20037;-85
2021/08/25 11:04:26;;;;;;;4.43;2.50;;;25.00;96.30;;;;;;4850619;29;20055;-84
2021/08/25 11:06:59;;;;;;;4.35;2.80;;;25.00;96.20;;;;;;4850380;29;20037;-84
2021/08/25 11:09:33;;;;;;;2.85;2.08;;;25.00;96.10;;;;;;4865792;29;20460;-86
2021/08/25 11:12:10;;;;;;;4.13;2.10;;;25.00;96.00;;;;;;4865952;29;20123;-86
2021/08/25 11:14:44;;;;;;;3.17;1.88;;;25.00;95.90;;;;;;4865708;29;20044;-86
2021/08/25 11:17:21;;;;;;;4.13;2.20;;;25.00;95.80;;;;;;4882750;29;20044;-85
2021/08/25 11:19:52;;;;;;;3.92;2.08;;;24.90;95.70;;;;;;4880412;29;20051;-86
2021/08/25 11:22:30;;;;;;;2.78;2.00;;;24.90;95.90;;;;;;4865711;29;20566;-86
2021/08/25 11:24:58;;;;;;;3.33;1.90;;;24.90;95.70;;;;;;4882456;29;20138;-85
2021/08/25 11:27:44;;;;;;;4.72;2.00;;;24.90;95.60;;;;;;4882676;29;20482;-85
2021/08/25 11:30:20;;;;;;;3.10;1.85;;;24.90;95.70;;;;;;4881125;29;20036;-85
2021/08/25 11:32:49;;;;;;;2.97;1.80;;;24.90;95.90;;;;;;4881630;29;20056;-85
2021/08/25 11:35:45;;;;;;;2.78;1.70;;;24.90;95.60;;;;;;4882086;29;20547;-84
2021/08/25 11:38:17;;;;;;;3.10;1.88;;;24.90;95.60;;;;;;4865121;29;20036;-84
2021/08/25 11:40:46;;;;;;;2.97;1.70;;;24.90;95.60;;;;;;4881532;29;20061;-84
2021/08/25 11:43:20;;;;;;;4.18;1.80;;;24.90;95.50;;;;;;4882162;29;20043;-85
2021/08/25 11:45:51;;;;;;;2.75;1.70;;;24.90;95.60;;;;;;4881685;29;20065;-86
2021/08/25 11:48:17;;;;;;;1.83;1.45;;;24.90;95.50;;;;;;4865298;29;20052;-85
2021/08/25 11:50:48;;;;;;;2.28;1.40;;;24.90;95.50;;;;;;4881918;29;20550;-82
2021/08/25 11:53:21;;;;;;;1.65;1.50;;;24.90;95.60;;;;;;4881750;29;20037;-82
2021/08/25 11:55:50;;;;;;;2.40;1.05;;;24.90;95.70;;;;;;4881233;29;20037;-83
2021/08/25 11:58:27;;;;;;;1.77;1.52;;;24.90;95.70;;;;;;4865441;29;20041;-83
2021/08/25 12:00:54;;;;;;;2.97;1.67;;;24.90;95.80;;;;;;4881284;29;20021;-82
2021/08/25 12:03:21;;;;;;;2.47;1.48;;;24.90;95.70;;;;;;4864845;29;20041;-82
2021/08/25 12:05:54;;;;;;;3.45;1.45;;;24.90;95.60;;;;;;4864423;29;20397;-82
2021/08/25 12:08:20;;;;;;;2.30;1.10;;;24.90;95.50;;;;;;4881455;29;20029;-81
2021/08/25 12:11:07;;;;;;;1.67;1.10;;;24.90;95.50;;;;;;4881106;29;20103;-81
2021/08/25 12:13:35;;;;;;;1.83;1.20;;;24.90;95.50;;;;;;4864534;29;20060;-83
2021/08/25 12:16:03;;;;;;;2.25;1.13;;;24.90;95.50;;;;;;4881488;29;20036;-83
2021/08/25 12:18:30;;;;;;;2.13;1.23;;;24.90;95.50;;;;;;4881336;29;20057;-83
2021/08/25 12:21:07;;;;;;;2.08;1.17;;;24.90;95.60;;;;;;4880786;29;20025;-83
2021/08/25 12:23:33;;;;;;;2.90;1.50;;;24.90;95.60;;;;;;4880688;29;20036;-84
2021/08/25 12:25:59;;;;;;;1.60;1.38;;;24.90;95.60;;;;;;4880972;29;20108;-83
2021/08/25 12:28:42;;;;;;;1.42;1.00;;;24.90;95.50;;;;;;4849000;29;20480;-83
2021/08/25 12:31:18;;;;;;;2.05;1.30;;;24.90;95.60;;;;;;4881183;29;20041;-83
2021/08/25 12:33:46;;;;;;;1.83;1.10;;;24.90;95.60;;;;;;4863818;29;20029;-84
2021/08/25 12:36:32;;;;;;;1.42;0.95;;;25.00;95.70;;;;;;4880967;29;20037;-82
2021/08/25 12:39:13;;;;;;;1.48;1.00;;;24.90;95.50;;;;;;4880339;29;20085;-82
2021/08/25 12:41:41;;;;;;;2.30;1.05;;;24.90;95.50;;;;;;4880652;29;20036;-83